LGHI/JKH METAR and TAF weather

Enter ICAO airport designator
Station Type Date Time Source
LGHI METAR 2021/03/07 08:50 UTC NOAA

LGHI 070850Z 01012KT 9999 FEW018 SCT025 11/05 Q1023


Station Type Date Time Source
LGHI Decoded METAR 2021/03/07 08:50 UTC NOAA

Chios Airport , Greece (LGHI) 38-20N 026-08E 4M
Mar 07, 2021 - 03:50 AM EST / 2021.03.07 0850 UTC
Wind: from the N (010 degrees) at 14 MPH (12 KT):0
Visibility: greater than 7 mile(s):0
Sky conditions: partly cloudy
Temperature: 51 F (11 C)
Dew Point: 41 F (5 C)
Relative Humidity: 66%
Pressure (altimeter): 30.21 in. Hg (1023 hPa)
ob: LGHI 070850Z 01012KT 9999 FEW018 SCT025 11/05 Q1023
cycle: 9

Station Type Date Time Source
LGHI TAF 2012/09/21 03:06 UTC NOAA

TAF TAF LGHI 210200Z 2103/2115 VRB05KT 9999 SCT020 PROB30
TEMPO 2103/2106 7000 RA SCT018 BKN030
BECMG 2103/2105 30018KT

Example: see airport list